NKS153 KEWR-KORD
Flight info
| Callsign | NKS153 |
|---|---|
| Flight time | 1h 56m |
| Altitude | 38000 |
| Route | NEWEL J60 DJB NOLNN Q62 WATSN WATSN4 |
| Aircraft | A320/M-SDE3FGHIRWY/LB1 |
Departure
| Time | 2026-05-05 15:15 |
|---|---|
| Airport | Newark Liberty International Airport (KEWR) |
Arrival
| Time | 2026-05-05 17:11 |
|---|---|
| Airport | Chicago O'Hare International Airport (KORD) |
| Time | Latitude | Longitude | Altitude | Speed | Heading |
|---|---|---|---|---|---|
| 2026-05-05 14:56 | 40.68836 | -74.17639 | 11 ft | 0 kts | 232° |
| 2026-05-05 15:08 | 40.68840 | -74.17632 | 24 ft | 2 kts | 227° |
| 2026-05-05 15:08 | 40.68851 | -74.17617 | 22 ft | 2 kts | 200° |
| 2026-05-05 15:08 | 40.68865 | -74.17609 | 22 ft | 2 kts | 197° |
| 2026-05-05 15:09 | 40.68881 | -74.17606 | 23 ft | 2 kts | 149° |
| 2026-05-05 15:09 | 40.68888 | -74.17613 | 24 ft | 0 kts | 118° |
| 2026-05-05 15:10 | 40.68882 | -74.17598 | 23 ft | 4 kts | 116° |
| 2026-05-05 15:10 | 40.68866 | -74.17553 | 22 ft | 7 kts | 116° |
| 2026-05-05 15:10 | 40.68840 | -74.17485 | 22 ft | 9 kts | 117° |
| 2026-05-05 15:10 | 40.68810 | -74.17405 | 22 ft | 11 kts | 114° |
| 2026-05-05 15:11 | 40.68790 | -74.17328 | 23 ft | 5 kts | 76° |
| 2026-05-05 15:11 | 40.68820 | -74.17292 | 23 ft | 7 kts | 31° |
| 2026-05-05 15:11 | 40.68875 | -74.17256 | 23 ft | 10 kts | 26° |
| 2026-05-05 15:11 | 40.68947 | -74.17209 | 22 ft | 13 kts | 26° |
| 2026-05-05 15:12 | 40.69040 | -74.17150 | 22 ft | 16 kts | 26° |
| 2026-05-05 15:12 | 40.69148 | -74.17082 | 23 ft | 18 kts | 25° |
| 2026-05-05 15:12 | 40.69259 | -74.17010 | 22 ft | 18 kts | 25° |
| 2026-05-05 15:12 | 40.69375 | -74.16938 | 23 ft | 19 kts | 26° |
| 2026-05-05 15:13 | 40.69496 | -74.16859 | 23 ft | 20 kts | 25° |
| 2026-05-05 15:13 | 40.69628 | -74.16776 | 22 ft | 22 kts | 26° |
| 2026-05-05 15:13 | 40.69752 | -74.16698 | 22 ft | 17 kts | 26° |
| 2026-05-05 15:13 | 40.69867 | -74.16625 | 21 ft | 19 kts | 26° |
| 2026-05-05 15:14 | 40.69987 | -74.16548 | 22 ft | 20 kts | 27° |
| 2026-05-05 15:14 | 40.70062 | -74.16465 | 23 ft | 12 kts | 83° |
| 2026-05-05 15:14 | 40.70033 | -74.16366 | 21 ft | 12 kts | 167° |
| 2026-05-05 15:14 | 40.69993 | -74.16386 | 19 ft | 11 kts | 206° |
| 2026-05-05 15:15 | 40.69701 | -74.16571 | 22 ft | 80 kts | 205° |
| 2026-05-05 15:15 | 40.69028 | -74.16998 | 24 ft | 133 kts | 205° |
| 2026-05-05 15:15 | 40.68105 | -74.17583 | 316 ft | 152 kts | 208° |
| 2026-05-05 15:15 | 40.67120 | -74.17959 | 1039 ft | 147 kts | 182° |
| 2026-05-05 15:16 | 40.66085 | -74.17670 | 1597 ft | 159 kts | 170° |
| 2026-05-05 15:16 | 40.65008 | -74.17767 | 2067 ft | 159 kts | 218° |
| 2026-05-05 15:16 | 40.64184 | -74.18713 | 2739 ft | 161 kts | 221° |
| 2026-05-05 15:16 | 40.63142 | -74.19536 | 3008 ft | 192 kts | 214° |
| 2026-05-05 15:17 | 40.61871 | -74.20445 | 3038 ft | 223 kts | 212° |
| 2026-05-05 15:17 | 40.60447 | -74.21445 | 3645 ft | 240 kts | 216° |
| 2026-05-05 15:17 | 40.59255 | -74.22980 | 4449 ft | 243 kts | 241° |
| 2026-05-05 15:17 | 40.58766 | -74.25085 | 5394 ft | 245 kts | 266° |
| 2026-05-05 15:18 | 40.59121 | -74.27301 | 6300 ft | 256 kts | 290° |
| 2026-05-05 15:18 | 40.59917 | -74.29437 | 7110 ft | 262 kts | 291° |
| 2026-05-05 15:18 | 40.60732 | -74.31599 | 7993 ft | 265 kts | 290° |
| 2026-05-05 15:18 | 40.61544 | -74.33755 | 8863 ft | 267 kts | 290° |
| 2026-05-05 15:19 | 40.62371 | -74.35953 | 9744 ft | 270 kts | 290° |
| 2026-05-05 15:19 | 40.63220 | -74.38222 | 10418 ft | 279 kts | 290° |
| 2026-05-05 15:19 | 40.64096 | -74.40584 | 10815 ft | 295 kts | 290° |
| 2026-05-05 15:19 | 40.65016 | -74.43071 | 11311 ft | 306 kts | 290° |
| 2026-05-05 15:20 | 40.65958 | -74.45604 | 12033 ft | 309 kts | 290° |
| 2026-05-05 15:20 | 40.66896 | -74.48118 | 12815 ft | 310 kts | 291° |
| 2026-05-05 15:20 | 40.67849 | -74.50673 | 13590 ft | 312 kts | 291° |
| 2026-05-05 15:20 | 40.68816 | -74.53274 | 14308 ft | 313 kts | 291° |
| 2026-05-05 15:21 | 40.69774 | -74.55862 | 14940 ft | 316 kts | 291° |
| 2026-05-05 15:21 | 40.70745 | -74.58484 | 15563 ft | 320 kts | 291° |
| 2026-05-05 15:21 | 40.71712 | -74.61102 | 16169 ft | 323 kts | 292° |
| 2026-05-05 15:21 | 40.72700 | -74.63781 | 16768 ft | 327 kts | 292° |
| 2026-05-05 15:22 | 40.73700 | -74.66491 | 17382 ft | 331 kts | 292° |
| 2026-05-05 15:22 | 40.74723 | -74.69266 | 17993 ft | 334 kts | 292° |
| 2026-05-05 15:22 | 40.75746 | -74.72043 | 18553 ft | 338 kts | 292° |
| 2026-05-05 15:22 | 40.76777 | -74.74845 | 19087 ft | 341 kts | 292° |
| 2026-05-05 15:23 | 40.77815 | -74.77670 | 19633 ft | 345 kts | 292° |
| 2026-05-05 15:23 | 40.78855 | -74.80501 | 20189 ft | 349 kts | 292° |
| 2026-05-05 15:23 | 40.79918 | -74.83398 | 20724 ft | 352 kts | 293° |
| 2026-05-05 15:23 | 40.80990 | -74.86325 | 21258 ft | 356 kts | 293° |
| 2026-05-05 15:24 | 40.82069 | -74.89277 | 21778 ft | 359 kts | 293° |
| 2026-05-05 15:24 | 40.83162 | -74.92269 | 22296 ft | 363 kts | 293° |
| 2026-05-05 15:24 | 40.84264 | -74.95281 | 22814 ft | 366 kts | 293° |
| 2026-05-05 15:24 | 40.85380 | -74.98322 | 23328 ft | 370 kts | 293° |
| 2026-05-05 15:25 | 40.86502 | -75.01392 | 23778 ft | 373 kts | 293° |
| 2026-05-05 15:25 | 40.87634 | -75.04498 | 24217 ft | 376 kts | 293° |
| 2026-05-05 15:25 | 40.88768 | -75.07626 | 24669 ft | 379 kts | 293° |
| 2026-05-05 15:25 | 40.89898 | -75.10752 | 25099 ft | 381 kts | 293° |
| 2026-05-05 15:26 | 40.90831 | -75.14046 | 25533 ft | 381 kts | 283° |
| 2026-05-05 15:26 | 40.91241 | -75.17501 | 25949 ft | 382 kts | 272° |
| 2026-05-05 15:26 | 40.91116 | -75.21010 | 26354 ft | 384 kts | 261° |
| 2026-05-05 15:26 | 40.90474 | -75.24451 | 26745 ft | 388 kts | 253° |
| 2026-05-05 15:27 | 40.89662 | -75.27869 | 27111 ft | 391 kts | 254° |
| 2026-05-05 15:27 | 40.88852 | -75.31311 | 27491 ft | 393 kts | 254° |
| 2026-05-05 15:27 | 40.88039 | -75.34772 | 27861 ft | 396 kts | 254° |
| 2026-05-05 15:27 | 40.87222 | -75.38260 | 28224 ft | 399 kts | 254° |
| 2026-05-05 15:28 | 40.86400 | -75.41768 | 28597 ft | 401 kts | 254° |
| 2026-05-05 15:28 | 40.85571 | -75.45300 | 28972 ft | 404 kts | 255° |
| 2026-05-05 15:28 | 40.84735 | -75.48846 | 29334 ft | 406 kts | 255° |
| 2026-05-05 15:28 | 40.83889 | -75.52420 | 29691 ft | 409 kts | 254° |
| 2026-05-05 15:29 | 40.83038 | -75.56006 | 30035 ft | 411 kts | 254° |
| 2026-05-05 15:29 | 40.82177 | -75.59625 | 30339 ft | 413 kts | 254° |
| 2026-05-05 15:29 | 40.81312 | -75.63252 | 30644 ft | 415 kts | 254° |
| 2026-05-05 15:29 | 40.80440 | -75.66895 | 30949 ft | 417 kts | 254° |
| 2026-05-05 15:30 | 40.79564 | -75.70554 | 31259 ft | 419 kts | 254° |
| 2026-05-05 15:30 | 40.78686 | -75.74227 | 31579 ft | 420 kts | 254° |
| 2026-05-05 15:30 | 40.77811 | -75.77895 | 32021 ft | 418 kts | 254° |
| 2026-05-05 15:30 | 40.76938 | -75.81541 | 32483 ft | 416 kts | 254° |
| 2026-05-05 15:31 | 40.76065 | -75.85167 | 32938 ft | 414 kts | 254° |
| 2026-05-05 15:31 | 40.75191 | -75.88786 | 33400 ft | 413 kts | 254° |
| 2026-05-05 15:31 | 40.74324 | -75.92371 | 33859 ft | 411 kts | 253° |
| 2026-05-05 15:31 | 40.73455 | -75.95955 | 34261 ft | 409 kts | 253° |
| 2026-05-05 15:32 | 40.72593 | -75.99519 | 34637 ft | 407 kts | 253° |
| 2026-05-05 15:32 | 40.71733 | -76.03074 | 35000 ft | 406 kts | 253° |
| 2026-05-05 15:32 | 40.70875 | -76.06616 | 35336 ft | 405 kts | 253° |
| 2026-05-05 15:32 | 40.70021 | -76.10139 | 35672 ft | 404 kts | 253° |
| 2026-05-05 15:33 | 40.69168 | -76.13659 | 35994 ft | 403 kts | 253° |
| 2026-05-05 15:33 | 40.68318 | -76.17171 | 36306 ft | 402 kts | 253° |
| 2026-05-05 15:33 | 40.67527 | -76.20691 | 36606 ft | 400 kts | 259° |
| 2026-05-05 15:33 | 40.67149 | -76.24304 | 36909 ft | 398 kts | 268° |
| 2026-05-05 15:34 | 40.67259 | -76.27942 | 37187 ft | 398 kts | 277° |
| 2026-05-05 15:34 | 40.67768 | -76.31522 | 37435 ft | 398 kts | 280° |
| 2026-05-05 15:34 | 40.68312 | -76.35097 | 37669 ft | 398 kts | 280° |
| 2026-05-05 15:34 | 40.68849 | -76.38675 | 37893 ft | 398 kts | 279° |
| 2026-05-05 15:35 | 40.69379 | -76.42246 | 37953 ft | 396 kts | 279° |
| 2026-05-05 15:35 | 40.70433 | -76.49361 | 37950 ft | 395 kts | 279° |
| 2026-05-05 15:36 | 40.71487 | -76.56471 | 37941 ft | 395 kts | 279° |
| 2026-05-05 15:36 | 40.72535 | -76.63570 | 37934 ft | 395 kts | 279° |
| 2026-05-05 15:37 | 40.73578 | -76.70667 | 37896 ft | 394 kts | 279° |
| 2026-05-05 15:37 | 40.74618 | -76.77769 | 37902 ft | 394 kts | 279° |
| 2026-05-05 15:38 | 40.75642 | -76.84822 | 37903 ft | 394 kts | 279° |
| 2026-05-05 15:38 | 40.76668 | -76.91918 | 37906 ft | 394 kts | 279° |
| 2026-05-05 15:39 | 40.77685 | -76.99025 | 37908 ft | 394 kts | 279° |
| 2026-05-05 15:39 | 40.78701 | -77.06131 | 37910 ft | 394 kts | 279° |
| 2026-05-05 15:40 | 40.79721 | -77.13230 | 37902 ft | 393 kts | 279° |
| 2026-05-05 15:40 | 40.80730 | -77.20318 | 37899 ft | 393 kts | 279° |
| 2026-05-05 15:41 | 40.81725 | -77.27395 | 37897 ft | 392 kts | 279° |
| 2026-05-05 15:41 | 40.82721 | -77.34464 | 37893 ft | 392 kts | 279° |
| 2026-05-05 15:42 | 40.83715 | -77.41528 | 37895 ft | 390 kts | 279° |
| 2026-05-05 15:42 | 40.84697 | -77.48565 | 37903 ft | 390 kts | 279° |
| 2026-05-05 15:43 | 40.85675 | -77.55598 | 37907 ft | 388 kts | 279° |
| 2026-05-05 15:43 | 40.86641 | -77.62581 | 37914 ft | 385 kts | 279° |
| 2026-05-05 15:44 | 40.87594 | -77.69530 | 37922 ft | 383 kts | 279° |
| 2026-05-05 15:44 | 40.88535 | -77.76432 | 37926 ft | 380 kts | 279° |
| 2026-05-05 15:45 | 40.89469 | -77.83288 | 37925 ft | 378 kts | 279° |
| 2026-05-05 15:45 | 40.90392 | -77.90095 | 37925 ft | 375 kts | 279° |
| 2026-05-05 15:46 | 40.91307 | -77.96873 | 37917 ft | 374 kts | 280° |
| 2026-05-05 15:46 | 40.92198 | -78.03639 | 37909 ft | 373 kts | 279° |
| 2026-05-05 15:47 | 40.93033 | -78.10387 | 37896 ft | 371 kts | 278° |
| 2026-05-05 15:47 | 40.93846 | -78.17109 | 37890 ft | 370 kts | 278° |
| 2026-05-05 15:48 | 40.94664 | -78.23810 | 37892 ft | 368 kts | 278° |
| 2026-05-05 15:48 | 40.95482 | -78.30480 | 37896 ft | 367 kts | 278° |
| 2026-05-05 15:49 | 40.96293 | -78.37142 | 37890 ft | 367 kts | 278° |
| 2026-05-05 15:49 | 40.97105 | -78.43818 | 37875 ft | 368 kts | 278° |
| 2026-05-05 15:50 | 40.97913 | -78.50504 | 37872 ft | 368 kts | 278° |
| 2026-05-05 15:50 | 40.98580 | -78.56076 | 37862 ft | 369 kts | 278° |
| 2026-05-05 15:51 | 40.99378 | -78.62797 | 37855 ft | 370 kts | 278° |
| 2026-05-05 15:51 | 41.00177 | -78.69528 | 37846 ft | 370 kts | 278° |
| 2026-05-05 15:52 | 41.00922 | -78.75872 | 37841 ft | 370 kts | 278° |
| 2026-05-05 15:52 | 41.01450 | -78.80345 | 37851 ft | 370 kts | 278° |
| 2026-05-05 15:53 | 41.02161 | -78.86377 | 37850 ft | 370 kts | 278° |
| 2026-05-05 15:53 | 41.02946 | -78.93111 | 37860 ft | 370 kts | 278° |
| 2026-05-05 15:54 | 41.03723 | -78.99837 | 37847 ft | 370 kts | 278° |
| 2026-05-05 15:54 | 41.04500 | -79.06572 | 37851 ft | 370 kts | 278° |
| 2026-05-05 15:55 | 41.05273 | -79.13262 | 37846 ft | 369 kts | 278° |
| 2026-05-05 15:55 | 41.06043 | -79.19980 | 37847 ft | 369 kts | 278° |
| 2026-05-05 15:56 | 41.06809 | -79.26696 | 37844 ft | 368 kts | 278° |
| 2026-05-05 15:56 | 41.07564 | -79.33403 | 37847 ft | 367 kts | 278° |
| 2026-05-05 15:57 | 41.08309 | -79.40091 | 37846 ft | 367 kts | 278° |
| 2026-05-05 15:57 | 41.09050 | -79.46777 | 37854 ft | 366 kts | 278° |
| 2026-05-05 15:58 | 41.09796 | -79.53440 | 37853 ft | 365 kts | 278° |
| 2026-05-05 15:58 | 41.10538 | -79.60101 | 37852 ft | 365 kts | 278° |
| 2026-05-05 15:59 | 41.11270 | -79.66748 | 37857 ft | 364 kts | 278° |
| 2026-05-05 15:59 | 41.11994 | -79.73370 | 37856 ft | 363 kts | 278° |
| 2026-05-05 16:00 | 41.12709 | -79.79982 | 37861 ft | 362 kts | 278° |
| 2026-05-05 16:00 | 41.13423 | -79.86582 | 37861 ft | 361 kts | 278° |
| 2026-05-05 16:01 | 41.14128 | -79.93157 | 37863 ft | 360 kts | 278° |
| 2026-05-05 16:01 | 41.14830 | -79.99725 | 37868 ft | 359 kts | 278° |
| 2026-05-05 16:02 | 41.15530 | -80.06281 | 37873 ft | 358 kts | 278° |
| 2026-05-05 16:02 | 41.16222 | -80.12818 | 37870 ft | 357 kts | 278° |
| 2026-05-05 16:03 | 41.16908 | -80.19344 | 37853 ft | 357 kts | 278° |
| 2026-05-05 16:03 | 41.17591 | -80.25851 | 37872 ft | 356 kts | 278° |
| 2026-05-05 16:04 | 41.18264 | -80.32351 | 37885 ft | 355 kts | 278° |
| 2026-05-05 16:04 | 41.18932 | -80.38850 | 37883 ft | 355 kts | 277° |
| 2026-05-05 16:05 | 41.19605 | -80.45353 | 37879 ft | 356 kts | 278° |
| 2026-05-05 16:05 | 41.20274 | -80.51863 | 37867 ft | 356 kts | 277° |
| 2026-05-05 16:06 | 41.20933 | -80.58382 | 37872 ft | 356 kts | 277° |
| 2026-05-05 16:06 | 41.21558 | -80.64603 | 37867 ft | 356 kts | 277° |
| 2026-05-05 16:07 | 41.22217 | -80.71128 | 37865 ft | 357 kts | 277° |
| 2026-05-05 16:07 | 41.22872 | -80.77622 | 37861 ft | 357 kts | 277° |
| 2026-05-05 16:08 | 41.23517 | -80.84149 | 37865 ft | 356 kts | 277° |
| 2026-05-05 16:08 | 41.24165 | -80.90677 | 37853 ft | 356 kts | 277° |
| 2026-05-05 16:09 | 41.24803 | -80.97188 | 37854 ft | 355 kts | 277° |
| 2026-05-05 16:09 | 41.25434 | -81.03695 | 37855 ft | 355 kts | 277° |
| 2026-05-05 16:10 | 41.26064 | -81.10189 | 37860 ft | 354 kts | 277° |
| 2026-05-05 16:10 | 41.26690 | -81.16677 | 37857 ft | 354 kts | 277° |
| 2026-05-05 16:11 | 41.27308 | -81.23147 | 37869 ft | 353 kts | 277° |
| 2026-05-05 16:12 | 41.28534 | -81.36078 | 37861 ft | 352 kts | 277° |
| 2026-05-05 16:13 | 41.30045 | -81.52172 | 37845 ft | 350 kts | 277° |
| 2026-05-05 16:13 | 41.30634 | -81.58588 | 37847 ft | 349 kts | 277° |
| 2026-05-05 16:14 | 41.31815 | -81.71403 | 37855 ft | 349 kts | 277° |
| 2026-05-05 16:15 | 41.32919 | -81.83568 | 37855 ft | 348 kts | 277° |
| 2026-05-05 16:16 | 41.34029 | -81.95945 | 37862 ft | 347 kts | 277° |
| 2026-05-05 16:17 | 41.34843 | -82.05150 | 37864 ft | 348 kts | 277° |
| 2026-05-05 16:18 | 41.35651 | -82.14363 | 37867 ft | 348 kts | 277° |
| 2026-05-05 16:19 | 41.35510 | -82.24036 | 37869 ft | 349 kts | 269° |
| 2026-05-05 16:19 | 41.35105 | -82.33714 | 37862 ft | 349 kts | 269° |
| 2026-05-05 16:20 | 41.34570 | -82.46628 | 37848 ft | 349 kts | 269° |
| 2026-05-05 16:22 | 41.33885 | -82.62765 | 37829 ft | 350 kts | 269° |
| 2026-05-05 16:23 | 41.33334 | -82.75680 | 37833 ft | 350 kts | 269° |
| 2026-05-05 16:23 | 41.32898 | -82.85326 | 37835 ft | 349 kts | 269° |
| 2026-05-05 16:24 | 41.32602 | -82.91787 | 37832 ft | 350 kts | 269° |
| 2026-05-05 16:25 | 41.32149 | -83.01482 | 37828 ft | 351 kts | 269° |
| 2026-05-05 16:25 | 41.31695 | -83.11203 | 37824 ft | 351 kts | 269° |
| 2026-05-05 16:26 | 41.31074 | -83.24171 | 37829 ft | 351 kts | 269° |
| 2026-05-05 16:27 | 41.30760 | -83.30661 | 37834 ft | 352 kts | 268° |
| 2026-05-05 16:27 | 41.30439 | -83.37161 | 37835 ft | 352 kts | 268° |
| 2026-05-05 16:28 | 41.30111 | -83.43665 | 37832 ft | 353 kts | 268° |
| 2026-05-05 16:28 | 41.29781 | -83.50176 | 37832 ft | 353 kts | 268° |
| 2026-05-05 16:29 | 41.29447 | -83.56700 | 37827 ft | 354 kts | 268° |
| 2026-05-05 16:29 | 41.29107 | -83.63233 | 37832 ft | 354 kts | 268° |
| 2026-05-05 16:30 | 41.28767 | -83.69763 | 37831 ft | 355 kts | 268° |
| 2026-05-05 16:30 | 41.28421 | -83.76305 | 37830 ft | 355 kts | 268° |
| 2026-05-05 16:31 | 41.28072 | -83.82850 | 37844 ft | 355 kts | 268° |
| 2026-05-05 16:31 | 41.27718 | -83.89408 | 37855 ft | 356 kts | 268° |
| 2026-05-05 16:32 | 41.27379 | -83.95535 | 37858 ft | 356 kts | 268° |
| 2026-05-05 16:32 | 41.27013 | -84.02133 | 37867 ft | 356 kts | 268° |
| 2026-05-05 16:33 | 41.26646 | -84.08713 | 37865 ft | 357 kts | 268° |
| 2026-05-05 16:33 | 41.26277 | -84.15292 | 37860 ft | 357 kts | 268° |
| 2026-05-05 16:34 | 41.25905 | -84.21882 | 37873 ft | 358 kts | 268° |
| 2026-05-05 16:34 | 41.25527 | -84.28480 | 37875 ft | 358 kts | 268° |
| 2026-05-05 16:35 | 41.25144 | -84.35080 | 37882 ft | 359 kts | 268° |
| 2026-05-05 16:35 | 41.24823 | -84.40571 | 37881 ft | 359 kts | 268° |
| 2026-05-05 16:36 | 41.24432 | -84.47182 | 37883 ft | 359 kts | 268° |
| 2026-05-05 16:36 | 41.24036 | -84.53797 | 37881 ft | 359 kts | 267° |
| 2026-05-05 16:37 | 41.23637 | -84.60424 | 37879 ft | 360 kts | 267° |
| 2026-05-05 16:37 | 41.23553 | -84.67048 | 37874 ft | 359 kts | 274° |
| 2026-05-05 16:38 | 41.23783 | -84.73686 | 37875 ft | 360 kts | 273° |
| 2026-05-05 16:38 | 41.23994 | -84.80332 | 37871 ft | 360 kts | 273° |
| 2026-05-05 16:39 | 41.24202 | -84.86988 | 37869 ft | 361 kts | 273° |
| 2026-05-05 16:39 | 41.24409 | -84.93647 | 37867 ft | 361 kts | 273° |
| 2026-05-05 16:40 | 41.24611 | -85.00313 | 37862 ft | 362 kts | 273° |
| 2026-05-05 16:40 | 41.24814 | -85.07002 | 37858 ft | 362 kts | 273° |
| 2026-05-05 16:41 | 41.25020 | -85.13702 | 37859 ft | 364 kts | 273° |
| 2026-05-05 16:41 | 41.25214 | -85.20373 | 37883 ft | 364 kts | 273° |
| 2026-05-05 16:42 | 41.25399 | -85.27093 | 37880 ft | 365 kts | 272° |
| 2026-05-05 16:42 | 41.25581 | -85.33828 | 37872 ft | 365 kts | 273° |
| 2026-05-05 16:43 | 41.25768 | -85.40626 | 37873 ft | 366 kts | 272° |
| 2026-05-05 16:43 | 41.25947 | -85.47345 | 37872 ft | 366 kts | 272° |
| 2026-05-05 16:44 | 41.26126 | -85.54115 | 37885 ft | 367 kts | 272° |
| 2026-05-05 16:44 | 41.26300 | -85.60895 | 37894 ft | 367 kts | 272° |
| 2026-05-05 16:45 | 41.26466 | -85.67689 | 37899 ft | 368 kts | 272° |
| 2026-05-05 16:45 | 41.26632 | -85.74497 | 37906 ft | 368 kts | 272° |
| 2026-05-05 16:46 | 41.26795 | -85.81306 | 37904 ft | 369 kts | 272° |
| 2026-05-05 16:46 | 41.27009 | -85.88134 | 37379 ft | 373 kts | 275° |
| 2026-05-05 16:47 | 41.27253 | -85.91560 | 36933 ft | 369 kts | 276° |
| 2026-05-05 16:47 | 41.27547 | -85.94923 | 36578 ft | 363 kts | 277° |
| 2026-05-05 16:47 | 41.27854 | -85.98231 | 36217 ft | 358 kts | 277° |
| 2026-05-05 16:47 | 41.28157 | -86.01499 | 35780 ft | 355 kts | 276° |
| 2026-05-05 16:48 | 41.28453 | -86.04747 | 35324 ft | 353 kts | 277° |
| 2026-05-05 16:48 | 41.28803 | -86.07972 | 34855 ft | 352 kts | 278° |
| 2026-05-05 16:48 | 41.29191 | -86.11181 | 34378 ft | 351 kts | 278° |
| 2026-05-05 16:48 | 41.29590 | -86.14364 | 33992 ft | 347 kts | 278° |
| 2026-05-05 16:49 | 41.29984 | -86.17527 | 33474 ft | 347 kts | 278° |
| 2026-05-05 16:49 | 41.30373 | -86.20686 | 32984 ft | 345 kts | 278° |
| 2026-05-05 16:49 | 41.30750 | -86.23835 | 32490 ft | 345 kts | 278° |
| 2026-05-05 16:49 | 41.31119 | -86.26987 | 32007 ft | 344 kts | 278° |
| 2026-05-05 16:50 | 41.31482 | -86.30122 | 31525 ft | 344 kts | 278° |
| 2026-05-05 16:50 | 41.31844 | -86.33274 | 31065 ft | 344 kts | 278° |
| 2026-05-05 16:50 | 41.32206 | -86.36418 | 30604 ft | 344 kts | 278° |
| 2026-05-05 16:50 | 41.32569 | -86.39568 | 30139 ft | 344 kts | 278° |
| 2026-05-05 16:51 | 41.32932 | -86.42715 | 29659 ft | 344 kts | 278° |
| 2026-05-05 16:51 | 41.33293 | -86.45859 | 29206 ft | 343 kts | 278° |
| 2026-05-05 16:51 | 41.33648 | -86.48984 | 28786 ft | 341 kts | 278° |
| 2026-05-05 16:51 | 41.34001 | -86.52090 | 28363 ft | 339 kts | 278° |
| 2026-05-05 16:52 | 41.34599 | -86.55118 | 27929 ft | 338 kts | 291° |
| 2026-05-05 16:52 | 41.35636 | -86.57926 | 27503 ft | 338 kts | 295° |
| 2026-05-05 16:52 | 41.36709 | -86.60699 | 27063 ft | 336 kts | 295° |
| 2026-05-05 16:52 | 41.37775 | -86.63467 | 26610 ft | 335 kts | 295° |
| 2026-05-05 16:53 | 41.38864 | -86.66206 | 26167 ft | 335 kts | 299° |
| 2026-05-05 16:53 | 41.40303 | -86.68650 | 25717 ft | 338 kts | 312° |
| 2026-05-05 16:53 | 41.42154 | -86.70606 | 25266 ft | 343 kts | 324° |
| 2026-05-05 16:53 | 41.44290 | -86.72062 | 24782 ft | 345 kts | 329° |
| 2026-05-05 16:54 | 41.46423 | -86.73441 | 24296 ft | 345 kts | 329° |
| 2026-05-05 16:54 | 41.48607 | -86.74869 | 23804 ft | 346 kts | 329° |
| 2026-05-05 16:54 | 41.50735 | -86.76270 | 23297 ft | 346 kts | 328° |
| 2026-05-05 16:54 | 41.52955 | -86.77612 | 22824 ft | 347 kts | 336° |
| 2026-05-05 16:55 | 41.55316 | -86.78323 | 22378 ft | 351 kts | 349° |
| 2026-05-05 16:55 | 41.57748 | -86.78559 | 21940 ft | 349 kts | 350° |
| 2026-05-05 16:55 | 41.60167 | -86.78781 | 21501 ft | 347 kts | 350° |
| 2026-05-05 16:55 | 41.62569 | -86.79009 | 21073 ft | 345 kts | 349° |
| 2026-05-05 16:56 | 41.64957 | -86.79245 | 20680 ft | 343 kts | 349° |
| 2026-05-05 16:56 | 41.67325 | -86.79497 | 20268 ft | 340 kts | 348° |
| 2026-05-05 16:56 | 41.69637 | -86.79784 | 19883 ft | 337 kts | 348° |
| 2026-05-05 16:56 | 41.71963 | -86.80093 | 19484 ft | 335 kts | 348° |
| 2026-05-05 16:57 | 41.74277 | -86.80407 | 19091 ft | 333 kts | 347° |
| 2026-05-05 16:57 | 41.76580 | -86.80720 | 18699 ft | 332 kts | 348° |
| 2026-05-05 16:57 | 41.78866 | -86.81079 | 18299 ft | 329 kts | 345° |
| 2026-05-05 16:57 | 41.81122 | -86.81553 | 17861 ft | 327 kts | 343° |
| 2026-05-05 16:58 | 41.83344 | -86.82084 | 17473 ft | 323 kts | 343° |
| 2026-05-05 16:58 | 41.85503 | -86.82784 | 17094 ft | 314 kts | 333° |
| 2026-05-05 16:58 | 41.87427 | -86.84044 | 16716 ft | 303 kts | 321° |
| 2026-05-05 16:58 | 41.89074 | -86.85740 | 16343 ft | 296 kts | 314° |
| 2026-05-05 16:59 | 41.90640 | -86.87523 | 15985 ft | 294 kts | 314° |
| 2026-05-05 16:59 | 41.92198 | -86.89281 | 15631 ft | 291 kts | 313° |
| 2026-05-05 16:59 | 41.93537 | -86.91300 | 15275 ft | 282 kts | 298° |
| 2026-05-05 16:59 | 41.94377 | -86.93597 | 14909 ft | 275 kts | 284° |
| 2026-05-05 17:00 | 41.94741 | -86.96087 | 14545 ft | 271 kts | 272° |
| 2026-05-05 17:00 | 41.94864 | -86.98604 | 14198 ft | 269 kts | 272° |
| 2026-05-05 17:00 | 41.94995 | -87.01107 | 13842 ft | 268 kts | 272° |
| 2026-05-05 17:00 | 41.95129 | -87.03602 | 13468 ft | 267 kts | 272° |
| 2026-05-05 17:01 | 41.95261 | -87.06085 | 13104 ft | 265 kts | 272° |
| 2026-05-05 17:01 | 41.95392 | -87.08543 | 12752 ft | 263 kts | 272° |
| 2026-05-05 17:01 | 41.95522 | -87.10982 | 12398 ft | 261 kts | 272° |
| 2026-05-05 17:01 | 41.95652 | -87.13395 | 12054 ft | 259 kts | 272° |
| 2026-05-05 17:02 | 41.95780 | -87.15800 | 11710 ft | 257 kts | 272° |
| 2026-05-05 17:02 | 41.95900 | -87.18186 | 11367 ft | 255 kts | 272° |
| 2026-05-05 17:02 | 41.96020 | -87.20553 | 11032 ft | 253 kts | 272° |
| 2026-05-05 17:02 | 41.96141 | -87.22908 | 10690 ft | 252 kts | 272° |
| 2026-05-05 17:03 | 41.96263 | -87.25252 | 10348 ft | 251 kts | 272° |
| 2026-05-05 17:03 | 41.96383 | -87.27587 | 9993 ft | 251 kts | 272° |
| 2026-05-05 17:03 | 41.96501 | -87.29924 | 9614 ft | 250 kts | 272° |
| 2026-05-05 17:03 | 41.96569 | -87.32257 | 9239 ft | 249 kts | 269° |
| 2026-05-05 17:04 | 41.96581 | -87.34578 | 8878 ft | 248 kts | 269° |
| 2026-05-05 17:04 | 41.96576 | -87.36883 | 8523 ft | 247 kts | 268° |
| 2026-05-05 17:04 | 41.96569 | -87.39189 | 8164 ft | 246 kts | 268° |
| 2026-05-05 17:04 | 41.96564 | -87.41481 | 7816 ft | 245 kts | 268° |
| 2026-05-05 17:05 | 41.96551 | -87.43765 | 7466 ft | 244 kts | 268° |
| 2026-05-05 17:05 | 41.96543 | -87.46041 | 7121 ft | 243 kts | 268° |
| 2026-05-05 17:05 | 41.96547 | -87.48308 | 6781 ft | 242 kts | 269° |
| 2026-05-05 17:05 | 41.96553 | -87.50569 | 6439 ft | 242 kts | 269° |
| 2026-05-05 17:06 | 41.96558 | -87.52829 | 6086 ft | 241 kts | 269° |
| 2026-05-05 17:06 | 41.96563 | -87.55079 | 5744 ft | 240 kts | 268° |
| 2026-05-05 17:06 | 41.96567 | -87.57314 | 5435 ft | 238 kts | 268° |
| 2026-05-05 17:06 | 41.96570 | -87.59536 | 5124 ft | 237 kts | 268° |
| 2026-05-05 17:07 | 41.96573 | -87.61739 | 4807 ft | 235 kts | 268° |
| 2026-05-05 17:07 | 41.96576 | -87.63934 | 4493 ft | 236 kts | 267° |
| 2026-05-05 17:07 | 41.96577 | -87.66161 | 4170 ft | 241 kts | 268° |
| 2026-05-05 17:07 | 41.96580 | -87.68425 | 3844 ft | 243 kts | 267° |
| 2026-05-05 17:08 | 41.96582 | -87.70616 | 3533 ft | 232 kts | 267° |
| 2026-05-05 17:08 | 41.96583 | -87.72728 | 3236 ft | 221 kts | 267° |
| 2026-05-05 17:08 | 41.96584 | -87.74768 | 2947 ft | 210 kts | 266° |
| 2026-05-05 17:08 | 41.96584 | -87.76695 | 2675 ft | 201 kts | 267° |
| 2026-05-05 17:09 | 41.96584 | -87.78489 | 2427 ft | 188 kts | 266° |
| 2026-05-05 17:09 | 41.96585 | -87.80188 | 2176 ft | 169 kts | 265° |
| 2026-05-05 17:09 | 41.96586 | -87.81611 | 1983 ft | 142 kts | 265° |
| 2026-05-05 17:09 | 41.96584 | -87.82874 | 1776 ft | 132 kts | 264° |
| 2026-05-05 17:10 | 41.96582 | -87.84100 | 1574 ft | 131 kts | 265° |
| 2026-05-05 17:10 | 41.96579 | -87.85332 | 1368 ft | 131 kts | 266° |
| 2026-05-05 17:10 | 41.96573 | -87.86553 | 1097 ft | 130 kts | 270° |
| 2026-05-05 17:10 | 41.96576 | -87.87760 | 924 ft | 129 kts | 272° |
| 2026-05-05 17:11 | 41.96573 | -87.88972 | 750 ft | 129 kts | 272° |
| 2026-05-05 17:11 | 41.96578 | -87.90164 | 670 ft | 120 kts | 269° |
| 2026-05-05 17:11 | 41.96574 | -87.91046 | 670 ft | 61 kts | 270° |
| 2026-05-05 17:11 | 41.96632 | -87.91414 | 669 ft | 27 kts | 294° |
| 2026-05-05 17:12 | 41.96694 | -87.91565 | 669 ft | 16 kts | 299° |
| 2026-05-05 17:12 | 41.96729 | -87.91674 | 669 ft | 14 kts | 284° |
| 2026-05-05 17:12 | 41.96737 | -87.91782 | 669 ft | 8 kts | 270° |
| 2026-05-05 17:12 | 41.96737 | -87.91873 | 669 ft | 11 kts | 272° |
| 2026-05-05 17:13 | 41.96737 | -87.92007 | 669 ft | 16 kts | 269° |
| 2026-05-05 17:13 | 41.96786 | -87.92081 | 668 ft | 9 kts | 357° |
| 2026-05-05 17:13 | 41.96818 | -87.92081 | 668 ft | 6 kts | 360° |
| 2026-05-05 17:13 | 41.96882 | -87.92081 | 668 ft | 13 kts | 359° |
| 2026-05-05 17:14 | 41.96993 | -87.92082 | 669 ft | 18 kts | 359° |
| 2026-05-05 17:14 | 41.97130 | -87.92081 | 669 ft | 21 kts | 1° |
| 2026-05-05 17:14 | 41.97242 | -87.92037 | 669 ft | 14 kts | 73° |
| 2026-05-05 17:14 | 41.97244 | -87.91891 | 669 ft | 17 kts | 90° |
| 2026-05-05 17:15 | 41.97244 | -87.91728 | 669 ft | 19 kts | 89° |
| 2026-05-05 17:15 | 41.97243 | -87.91295 | 669 ft | 20 kts | 88° |
| 2026-05-05 17:16 | 41.97245 | -87.91107 | 669 ft | 21 kts | 91° |
| 2026-05-05 17:16 | 41.97237 | -87.90907 | 669 ft | 21 kts | 94° |
| 2026-05-05 17:16 | 41.97229 | -87.90723 | 669 ft | 15 kts | 95° |
| 2026-05-05 17:16 | 41.97218 | -87.90601 | 669 ft | 14 kts | 96° |
| 2026-05-05 17:17 | 41.97233 | -87.90487 | 669 ft | 11 kts | 16° |
| 2026-05-05 17:17 | 41.97315 | -87.90493 | 669 ft | 13 kts | 356° |
| 2026-05-05 17:17 | 41.97354 | -87.90504 | 669 ft | 4 kts | 317° |
| 2026-05-05 17:17 | 41.97356 | -87.90541 | 669 ft | 3 kts | 269° |
| 2026-05-05 17:18 | 41.97356 | -87.90549 | 669 ft | 0 kts | 269° |